Yosemite National Park, California
Current Conditions -  °F | °C
As of 9:55 AM on Monday 24 Nov 2014 (Local Time) from KMMH Reporting Station
Clear Clear  
Wind Chill: 36°   Ceiling: Unl
Heat Index: 41°   Visibility: 10mi
Dew Point: 12°   Wind: 8mph
Humidity: 31%   Direction: 270°W
Pressure: 30.48"   Gusts: NA
Location:  37.6076°N, 119.603°W
Report Text: KMMH 241755Z AUTO 27007KT 10SM CLR 05/M11 A3048 RMK AO1
Loading
Personal Weather Stations






























Interactive Weather Map New forecast layout! Learn more

10-Day Weather Forecast

Advertisements
Track Severe Weather on mobile